KHOE

Homerville Airport

Homerville, Georgia, USA
METAR KHOE 182215Z AUTO 17010G15KT 1SM -RA BKN005 BKN015 OVC046 28/23 A3005 RMK AO2 VIS 1/2V5 LTG DSNT SW
Observed Flight Rules
Jun-18 @ 22:15 UTC (29 minutes ago) Instrument Flight Rules
Wind Visibility Clouds Conditions
170° at 10 knots
 Gusting to 15 knots
1 miles
  • Broken at 500' AGL
  • Broken at 1,500' AGL
  • Overcast at 4,600' AGL
  • Light Rain
Temperatures Readings
Current 28°C / 82°F
Dewpoint 23°C / 73°F
Humidity 74%
Altimeter 30.05" Hg
Pressure 1018 hPa
Elevation 57
METAR KHOE 182215Z AUTO 17010G15KT 1SM -RA BKN005 BKN015 OVC046 28/23 A3005 RMK AO2 VIS 1/2V5 LTG DSNT SW
Observed Flight Rules
Jun-18 @ 22:15 UTC
(29 minutes ago)
IFR
Wind Visibility
170° at 10 knots
 Gusting to 15 knots
1 miles
Clouds
  • Broken at 500' AGL
  • Broken at 1,500' AGL
  • Overcast at 4,600' AGL
Conditions
  • Light Rain
Temperature Dewpoint
28°C / 82°F 23°C / 73°F
Humidity Altimeter Pressure
74% 30.05" Hg 1018 hPa